Report METAR

 

LJLJ - Ljubljana/Brnik, Slovenia
Distance from station: O 41km
Dati ricevuti: 23/08/2019 01:30
Molto nuvoloso
Molto nuvoloso
 Vento da S
Vento: S 7 km/h
Temperatura: 17°C
P.to Rugiada: 17°C
Umidità: 100%
Barometro: 1025 hPa
Nuvole: Molto nuvoloso
Visibility: 10 km
Cloud details: Few Clouds 1006 m
Molto nuvoloso 1341 m
Molto nuvoloso 4572 m
2019/08/22 23:30 LJLJ 222330Z 18004KT 9999 FEW033TCU BKN044 BKN150 17/17 Q1025 TEMPO SHRA
LJMB - Maribor, Slovenia
Distance from station: NE 63km
Dati ricevuti: 23/08/2019 01:30
Coperto
Coperto
 Vento da NE
Vento: NE 7 km/h
Temperatura: 19°C
P.to Rugiada: 15°C
Umidità: 78%
Barometro: 1025 hPa
Nuvole: Coperto
Visibility: 10 km
Cloud details: Parz. nuvoloso 1067 m
Few Clouds 1219 m
Coperto 2743 m
2019/08/22 23:30 LJMB 222330Z 05004KT 9999 SCT035 FEW040TCU OVC090 19/15 Q1025
 
LJPZ - Portoroz, Slovenia
Distance from station: SO 130km
Dati ricevuti: 23/08/2019 01:30
Parz. nuvoloso
Parz. nuvoloso
 Vento da ESE
Vento: ESE 9 km/h
Temperatura: 23°C
P.to Rugiada: 16°C
Umidità: 65%
Barometro: 1019 hPa
Nuvole: Parz. nuvoloso
Visibility: 10 km
2019/08/22 23:30 LJPZ 222330Z AUTO 12005KT 090V150 9999 NSC 23/16 Q1019
LJCE - Cerklje, Slovenia
Distance from station: ESE 49km
Dati ricevuti: 23/08/2019 01:30
Molto nuvoloso
Molto nuvoloso
 Vento da SSO
Vento: SSO 4 km/h
Temperatura: 19°C
P.to Rugiada: 18°C
Umidità: 94%
Barometro: 1024 hPa
Nuvole: Molto nuvoloso
Visibility: 10 km
Cloud details: Molto nuvoloso 1219 m
2019/08/22 23:30 LJCE 222330Z AUTO 20002KT 9999 BKN040/// 19/18 Q1024
 
LDZA - Zagreb/Pleso, Croatia
Distance from station: ESE 96km
Dati ricevuti: 23/08/2019 01:30
Sereno
Sereno
 Vento da calmo
Vento: Calma
Temperatura: 20°C
P.to Rugiada: 17°C
Umidità: 83%
Barometro: 1023 hPa
Summary: Sereno
Visibility: superiore a 10 km
2019/08/22 23:30 LDZA 222330Z 00000KT CAVOK 20/17 Q1023 NOSIG
LDRI - Rijeka/Omisalj, Croatia
Distance from station: SSO 109km
Dati ricevuti: 23/08/2019 01:30
Molto nuvoloso
Molto nuvoloso
 Vento da NE
Vento: NE 19 km/h
Temperatura: 24°C
P.to Rugiada: 15°C
Umidità: 57%
Barometro: 1020 hPa
Nuvole: Molto nuvoloso
Visibility: 10 km
Cloud details: Few Clouds 1219 m
Molto nuvoloso 1524 m
2019/08/22 23:30 LDRI 222330Z 05010KT 360V080 9999 FEW040 BKN050 24/15 Q1020
 
LDPL - Pula, Croatia
Distance from station: SSO 164km
Dati ricevuti: 23/08/2019 01:30
Few Clouds
Few Clouds
 Vento da NE
Vento: NE 13 km/h
Temperatura: 22°C
P.to Rugiada: 17°C
Umidità: 73%
Barometro: 1019 hPa
Nuvole: Few Clouds
Visibility: 10 km
Cloud details: Few Clouds 914 m
2019/08/22 23:30 LDPL 222330Z 04007KT 9999 FEW030 22/17 Q1019
LOWK - Klagenfurt(Civ/M, Austria
Distance from station: NO 76km
Dati ricevuti: 23/08/2019 01:50
Molto nuvoloso
Molto nuvoloso
 Vento da SE
Vento: SE 4 km/h
Temperatura: 19°C
P.to Rugiada: 15°C
Umidità: 78%
Barometro: 1026 hPa
Nuvole: Molto nuvoloso
Visibility: 10 km
Cloud details: Few Clouds 1219 m
Parz. nuvoloso 1280 m
Molto nuvoloso 1341 m
2019/08/22 23:50 LOWK 222350Z AUTO 14002KT 9999 FEW040 SCT042 BKN044 19/15 Q1026
 
LOWG - Graz (mil/Civ), Austria
Distance from station: NNE 100km
Dati ricevuti: 23/08/2019 01:50
Temporale
Temporale
 Vento da Variabile
Vento: Variabile 4 km/h
Nuvole: Temporale
Visibility: 10 km
2019/08/22 23:50 LOWG 222350Z AUTO VRB02KT 9999 //////CB FEW048 BKN050 19/15 Q1025
LOAN - Wr.neustadt East, Austria
Distance from station: NNE 212km
Dati ricevuti: 22/08/2019 20:00
DATI Obsoleti
Molto nuvoloso
Molto nuvoloso
 Vento da Variabile
Vento: Variabile 4 km/h
Nuvole: Molto nuvoloso
Cloud details: Few Clouds 1219 m
Parz. nuvoloso 2743 m
Molto nuvoloso 9144 m
2019/08/22 18:00 LOAN 221800Z VRB02KT 25KM FEW040CU SCT090AC BKN300CI
 
LIPQ - Ronchi Legionari, Italy
Distance from station: SO 35km
Dati ricevuti: 23/08/2019 01:50
Molto nuvoloso
Molto nuvoloso
 Vento da NNO
Vento: NNO 7 km/h
Temperatura: 21°C
P.to Rugiada: 17°C
Umidità: 78%
Barometro: 1020 hPa
Nuvole: Molto nuvoloso
Visibility: 10 km
Cloud details: Molto nuvoloso 3962 m
Molto nuvoloso 5791 m
2019/08/22 23:50 LIPQ 222350Z AUTO 33004KT 9999 BKN130/// BKN190/// 21/17 Q1020
LIVT - Trieste, Italy
Distance from station: OSO 109km
Dati ricevuti: 23/08/2019 00:55
Few Clouds
Few Clouds
 Vento da NE
Vento: NE 28 km/h, Raffica: 57 km/h
Temperatura: 24°C
P.to Rugiada: 17°C
Umidità: 65%
Barometro: 1019 hPa
Nuvole: Few Clouds
Visibility: 10 km
Cloud details: Few Clouds 1219 m
2019/08/22 22:55 LIVT 222255Z 04015G31KT 9999 FEW040 24/17 Q1019 RMK BKN SCT120 QUK / QUL / VIS MAR 20 KM VIS MIN 9999
 
LIVO - Tarvisio, Italy
Distance from station: NNO 49km
Dati ricevuti: 22/08/2019 19:55
DATI Obsoleti
Parz. nuvoloso
Parz. nuvoloso
 Vento da calmo
Vento: Calma
Temperatura: 18°C
P.to Rugiada: 15°C
Umidità: 83%
Barometro: 1024 hPa
Nuvole: Parz. nuvoloso
Visibility: 10 km
Cloud details: Parz. nuvoloso 975 m
2019/08/22 17:55 LIVO 221755Z 00000KT 9999 SCT032 18/15 Q1024 RMK BKN SCT070 VIS MIN 9999
LIPZ - Venezia/Tessera, Italy
Distance from station: OSO 217km
Dati ricevuti: 23/08/2019 01:50
Few Clouds
Few Clouds
 Vento da E
Vento: E 6 km/h
Temperatura: 23°C
P.to Rugiada: 19°C
Umidità: 78%
Barometro: 1021 hPa
Nuvole: Few Clouds
Visibility: 10 km
Cloud details: Few Clouds 1067 m
2019/08/22 23:50 LIPZ 222350Z 09003KT 050V120 9999 FEW035 23/19 Q1021 TEMPO TSRA
 
LHSM - Balaton, Hungary
Distance from station: ENE 177km
Dati ricevuti: 23/08/2019 01:15
Sereno
Sereno
 Vento da N
Vento: N 11 km/h
Temperatura: 20°C
P.to Rugiada: 17°C
Umidità: 83%
Barometro: 1024 hPa
Summary: Sereno
Visibility: superiore a 10 km
2019/08/22 23:15 LHSM 222315Z AUTO 35006KT CAVOK 20/17 Q1024